createdAt,value
2018-01-23T00:00:51.141Z,97133
2018-01-23T00:03:21.894Z,97131
2018-01-23T00:05:49.361Z,97137
2018-01-23T00:08:16.058Z,97139
2018-01-23T00:10:42.844Z,97136
2018-01-23T00:13:09.555Z,97138
2018-01-23T00:15:36.263Z,97159
2018-01-23T00:18:03.065Z,97159
2018-01-23T00:20:31.582Z,97154
2018-01-23T00:22:58.271Z,97159
2018-01-23T00:25:28.694Z,97182
2018-01-23T00:27:56.259Z,97185
2018-01-23T00:30:23.012Z,97187
2018-01-23T00:32:49.709Z,97193
2018-01-23T00:35:16.376Z,97194
2018-01-23T00:37:46.930Z,97197
2018-01-23T00:40:24.336Z,97199
2018-01-23T00:42:51.123Z,97211
2018-01-23T00:45:17.818Z,97203
2018-01-23T00:47:54.772Z,97206
2018-01-23T00:50:21.544Z,97213
2018-01-23T00:52:48.199Z,97198
2018-01-23T00:55:15.690Z,97192
2018-01-23T00:57:42.326Z,97196
2018-01-23T01:00:08.996Z,97208
2018-01-23T01:05:37.371Z,97207
2018-01-23T01:08:18.472Z,97205
2018-01-23T01:10:45.493Z,97210
2018-01-23T01:13:12.974Z,97210
2018-01-23T01:15:39.706Z,97215
2018-01-23T01:18:07.131Z,97220
2018-01-23T01:20:44.508Z,97202
2018-01-23T01:23:25.783Z,97206
2018-01-23T01:25:54.598Z,97198
2018-01-23T01:28:21.300Z,97206
2018-01-23T01:30:47.957Z,97214
2018-01-23T01:33:14.650Z,97207
2018-01-23T01:35:42.033Z,97227
2018-01-23T01:38:19.490Z,97241
2018-01-23T01:40:46.312Z,97237
2018-01-23T01:43:13.028Z,97236
2018-01-23T01:45:39.767Z,97241
2018-01-23T01:48:32.233Z,97243
2018-01-23T01:50:58.994Z,97244
2018-01-23T01:53:25.703Z,97244
2018-01-23T01:55:52.382Z,97254
2018-01-23T01:58:19.070Z,97252
2018-01-23T02:01:03.855Z,97245
2018-01-23T02:03:30.579Z,97239
2018-01-23T02:05:58.034Z,97249
2018-01-23T02:08:24.705Z,97258
2018-01-23T02:13:52.618Z,97256
2018-01-23T02:16:19.345Z,97257
2018-01-23T02:18:46.034Z,97259
2018-01-23T02:21:12.838Z,97261
2018-01-23T02:23:46.054Z,97262
2018-01-23T02:26:16.770Z,97268
2018-01-23T02:28:43.462Z,97280
2018-01-23T02:31:10.264Z,97267
2018-01-23T02:33:36.949Z,97277
2018-01-23T02:36:03.620Z,97278
2018-01-23T02:38:41.688Z,97296
2018-01-23T02:41:08.348Z,97282
2018-01-23T02:43:35.141Z,97295
2018-01-23T02:46:01.876Z,97311
2018-01-23T02:48:28.568Z,97300
2018-01-23T02:50:55.241Z,97317
2018-01-23T02:53:22.679Z,97313
2018-01-23T02:55:49.336Z,97306
2018-01-23T02:58:16.034Z,97322
2018-01-23T03:00:42.864Z,97317
2018-01-23T03:03:09.530Z,97330
2018-01-23T03:05:36.190Z,97325
2018-01-23T03:08:02.922Z,97336
2018-01-23T03:10:29.658Z,97338
2018-01-23T03:13:03.571Z,97326
2018-01-23T03:15:30.254Z,97343
2018-01-23T03:18:04.896Z,97343
2018-01-23T03:20:47.217Z,97341
2018-01-23T03:23:14.639Z,97340
2018-01-23T03:25:41.333Z,97342
2018-01-23T03:28:07.983Z,97343
2018-01-23T03:30:40.907Z,97345
2018-01-23T03:33:07.641Z,97351
2018-01-23T03:35:35.066Z,97338
2018-01-23T03:38:01.806Z,97346
2018-01-23T03:40:29.222Z,97355
2018-01-23T03:42:55.906Z,97351
2018-01-23T03:45:23.389Z,97344
2018-01-23T03:47:50.046Z,97349
2018-01-23T03:50:16.723Z,97349
2018-01-23T03:52:43.440Z,97355
2018-01-23T03:55:10.162Z,97365
2018-01-23T03:57:41.041Z,97359
2018-01-23T04:00:07.758Z,97370
2018-01-23T04:02:34.439Z,97375
2018-01-23T04:05:27.865Z,97375
2018-01-23T04:07:54.537Z,97380
2018-01-23T04:10:24.830Z,97387
2018-01-23T04:12:51.531Z,97392
2018-01-23T04:15:24.445Z,97394
2018-01-23T04:17:51.099Z,97413
2018-01-23T04:20:24.620Z,97411
2018-01-23T04:22:56.356Z,97413
2018-01-23T04:25:23.105Z,97426
2018-01-23T04:27:49.880Z,97425
2018-01-23T04:30:16.573Z,97434
2018-01-23T04:32:44.020Z,97415
2018-01-23T04:35:14.153Z,97444
2018-01-23T04:37:44.771Z,97442
2018-01-23T04:40:11.450Z,97438
2018-01-23T04:42:44.695Z,97451
2018-01-23T04:45:11.354Z,97453
2018-01-23T04:47:52.606Z,97465
2018-01-23T04:50:21.369Z,97467
2018-01-23T04:52:48.079Z,97468
2018-01-23T04:55:14.814Z,97473
2018-01-23T04:57:41.488Z,97478
2018-01-23T05:00:08.910Z,97492
2018-01-23T05:02:35.625Z,97484
2018-01-23T05:05:04.386Z,97492
2018-01-23T05:07:36.821Z,97481
2018-01-23T05:10:03.522Z,97477
2018-01-23T05:12:30.202Z,97478
2018-01-23T05:14:57.053Z,97470
2018-01-23T05:17:23.814Z,97472
2018-01-23T05:19:55.928Z,97486
2018-01-23T05:22:22.621Z,97485
2018-01-23T05:24:49.313Z,97487
2018-01-23T05:27:15.966Z,97501
2018-01-23T05:29:42.698Z,97503
2018-01-23T05:32:09.394Z,97510
2018-01-23T05:34:36.080Z,97527
2018-01-23T05:37:02.752Z,97524
2018-01-23T05:39:29.449Z,97535
2018-01-23T05:41:56.834Z,97540
2018-01-23T05:44:23.614Z,97559
2018-01-23T05:46:50.330Z,97565
2018-01-23T05:49:17.083Z,97568
2018-01-23T05:51:43.811Z,97567
2018-01-23T05:54:10.511Z,97581
2018-01-23T05:56:37.223Z,97574
2018-01-23T05:59:03.924Z,97573
2018-01-23T06:01:31.350Z,97579
2018-01-23T06:03:58.111Z,97590
2018-01-23T06:06:25.610Z,97589
2018-01-23T06:08:52.298Z,97596
2018-01-23T06:11:18.977Z,97600
2018-01-23T06:13:46.450Z,97615
2018-01-23T06:16:13.131Z,97615
2018-01-23T06:18:39.844Z,97612
2018-01-23T06:21:06.648Z,97625
2018-01-23T06:23:33.370Z,97631
2018-01-23T06:26:00.142Z,97637
2018-01-23T06:28:27.570Z,97642
2018-01-23T06:30:54.309Z,97645
2018-01-23T06:33:21.046Z,97652
2018-01-23T06:35:47.837Z,97661
2018-01-23T06:38:15.295Z,97669
2018-01-23T06:40:42.028Z,97692
2018-01-23T06:43:08.754Z,97690
2018-01-23T06:45:35.449Z,97706
2018-01-23T06:48:02.185Z,97706
2018-01-23T06:50:29.717Z,97714
2018-01-23T06:52:56.425Z,97723
2018-01-23T06:55:23.097Z,97724
2018-01-23T06:57:50.075Z,97728
2018-01-23T07:00:20.998Z,97725
2018-01-23T07:02:47.719Z,97735
2018-01-23T07:05:14.559Z,97740
2018-01-23T07:07:41.810Z,97755
2018-01-23T07:10:08.617Z,97749
2018-01-23T07:12:36.041Z,97771
2018-01-23T07:15:02.784Z,97777
2018-01-23T07:17:29.465Z,97795
2018-01-23T07:19:56.919Z,97802
2018-01-23T07:22:24.380Z,97813
2018-01-23T07:24:51.817Z,97822
2018-01-23T07:27:18.519Z,97817
2018-01-23T07:29:45.240Z,97832
2018-01-23T07:32:11.940Z,97830
2018-01-23T07:34:38.653Z,97836
2018-01-23T07:37:12.571Z,97855
2018-01-23T07:39:39.412Z,97858
2018-01-23T07:42:07.186Z,97865
2018-01-23T07:44:33.930Z,97868
2018-01-23T07:47:00.703Z,97886
2018-01-23T07:49:27.378Z,97882
2018-01-23T07:51:54.874Z,97876
2018-01-23T07:54:21.572Z,97874
2018-01-23T07:56:49.012Z,97876
2018-01-23T07:59:15.713Z,97890
2018-01-23T08:01:42.442Z,97894
2018-01-23T08:04:09.211Z,97896
2018-01-23T08:06:35.900Z,97897
2018-01-23T08:09:02.805Z,97902
2018-01-23T08:11:29.503Z,97911
2018-01-23T08:13:56.246Z,97918
2018-01-23T08:16:23.747Z,97919
2018-01-23T08:18:50.454Z,97938
2018-01-23T08:21:17.913Z,97943
2018-01-23T08:23:45.456Z,97947
2018-01-23T08:26:13.135Z,97951
2018-01-23T08:28:39.865Z,97959
2018-01-23T08:31:06.571Z,97951
2018-01-23T08:33:33.331Z,97964
2018-01-23T08:36:00.025Z,97976
2018-01-23T08:38:27.492Z,97964
2018-01-23T08:40:54.946Z,97989
2018-01-23T08:43:22.446Z,97996
2018-01-23T08:45:49.196Z,98004
2018-01-23T08:48:15.962Z,98004
2018-01-23T08:50:42.647Z,98001
2018-01-23T08:53:09.436Z,98020
2018-01-23T08:55:36.211Z,98028
2018-01-23T08:58:03.005Z,98031
2018-01-23T09:00:29.742Z,98035
2018-01-23T09:02:56.495Z,98027
2018-01-23T09:05:23.204Z,98031
2018-01-23T09:07:50.687Z,98021
2018-01-23T09:10:17.437Z,98024
2018-01-23T09:12:44.132Z,98035
2018-01-23T09:15:10.905Z,98041
2018-01-23T09:17:38.340Z,98049
2018-01-23T09:20:06.671Z,98045
2018-01-23T09:22:35.034Z,98049
2018-01-23T09:25:03.410Z,98048
2018-01-23T09:27:30.898Z,98052
2018-01-23T09:29:57.663Z,98051
2018-01-23T09:32:24.387Z,98057
2018-01-23T09:34:51.160Z,98066
2018-01-23T09:37:17.887Z,98070
2018-01-23T09:39:44.612Z,98065
2018-01-23T09:42:11.368Z,98075
2018-01-23T09:44:38.097Z,98072
2018-01-23T09:47:05.560Z,98087
2018-01-23T09:49:32.717Z,98096
2018-01-23T09:52:01.112Z,98076
2018-01-23T09:54:29.490Z,98079
2018-01-23T09:56:57.836Z,98084
2018-01-23T09:59:25.355Z,98079
2018-01-23T10:01:52.109Z,98085
2018-01-23T10:04:18.826Z,98086
2018-01-23T10:06:47.221Z,98093
2018-01-23T10:09:13.927Z,98090
2018-01-23T10:11:41.410Z,98086
2018-01-23T10:14:08.181Z,98087
2018-01-23T10:16:34.908Z,98086
2018-01-23T10:19:01.681Z,98088
2018-01-23T10:21:28.426Z,98085
2018-01-23T10:23:55.267Z,98084
2018-01-23T10:26:22.033Z,98084
2018-01-23T10:28:48.824Z,98083
2018-01-23T10:31:15.568Z,98092
2018-01-23T10:33:44.380Z,98093
2018-01-23T10:36:11.175Z,98094
2018-01-23T10:38:37.930Z,98095
2018-01-23T10:41:05.415Z,98084
2018-01-23T10:43:32.127Z,98087
2018-01-23T10:45:59.636Z,98099
2018-01-23T10:48:26.363Z,98090
2018-01-23T10:50:53.143Z,98088
2018-01-23T10:53:19.855Z,98094
2018-01-23T10:55:46.665Z,98093
2018-01-23T10:58:14.172Z,98095
2018-01-23T11:00:46.813Z,98104
2018-01-23T11:03:14.291Z,98104
2018-01-23T11:05:41.792Z,98104
2018-01-23T11:08:10.237Z,98107
2018-01-23T11:10:37.365Z,98114
2018-01-23T11:13:04.085Z,98113
2018-01-23T11:15:30.804Z,98111
2018-01-23T11:17:58.291Z,98108
2018-01-23T11:20:25.064Z,98110
2018-01-23T11:22:51.859Z,98111
2018-01-23T11:25:18.654Z,98115
2018-01-23T11:27:45.480Z,98121
2018-01-23T11:30:12.341Z,98123
2018-01-23T11:32:39.126Z,98119
2018-01-23T11:35:05.858Z,98119
2018-01-23T11:37:33.383Z,98125
2018-01-23T11:40:00.162Z,98127
2018-01-23T11:42:27.627Z,98125
2018-01-23T11:44:55.115Z,98128
2018-01-23T11:47:21.867Z,98128
2018-01-23T11:49:48.598Z,98131
2018-01-23T11:52:15.337Z,98130
2018-01-23T11:54:42.107Z,98132
2018-01-23T11:57:08.860Z,98133
2018-01-23T11:59:35.596Z,98129
2018-01-23T12:02:02.411Z,98135
2018-01-23T12:04:29.135Z,98134
2018-01-23T12:06:56.607Z,98139
2018-01-23T12:09:24.087Z,98136
2018-01-23T12:11:52.481Z,98131
2018-01-23T12:14:19.951Z,98132
2018-01-23T12:16:48.358Z,98135
2018-01-23T12:19:16.805Z,98140
2018-01-23T12:21:45.136Z,98130
2018-01-23T12:24:11.909Z,98145
2018-01-23T12:26:38.672Z,98138
2018-01-23T12:29:05.369Z,98128
2018-01-23T12:31:32.196Z,98137
2018-01-23T12:33:58.942Z,98134
2018-01-23T12:36:25.649Z,98137
2018-01-23T12:38:52.410Z,98136
2018-01-23T12:41:19.171Z,98133
2018-01-23T12:43:45.845Z,98139
2018-01-23T12:46:12.572Z,98147
2018-01-23T12:48:39.285Z,98145
2018-01-23T12:51:06.994Z,98138
2018-01-23T12:53:33.704Z,98130
2018-01-23T12:56:00.412Z,98131
2018-01-23T12:58:27.148Z,98134
2018-01-23T13:00:54.635Z,98138
2018-01-23T13:03:21.312Z,98137
2018-01-23T13:05:48.010Z,98135
2018-01-23T13:08:14.745Z,98140
2018-01-23T13:10:41.399Z,98141
2018-01-23T13:13:08.087Z,98141
2018-01-23T13:15:34.805Z,98149
2018-01-23T13:18:01.494Z,98143
2018-01-23T13:20:28.934Z,98146
2018-01-23T13:22:55.649Z,98149
2018-01-23T13:25:22.356Z,98154
2018-01-23T13:27:49.895Z,98157
2018-01-23T13:30:16.647Z,98156
2018-01-23T13:32:44.137Z,98172
2018-01-23T13:35:10.823Z,98162
2018-01-23T13:37:37.602Z,98168
2018-01-23T13:40:05.030Z,98167
2018-01-23T13:42:31.705Z,98168
2018-01-23T13:44:59.173Z,98173
2018-01-23T13:47:26.620Z,98169
2018-01-23T13:49:53.315Z,98161
2018-01-23T13:52:20.019Z,98166
2018-01-23T13:54:47.454Z,98165
2018-01-23T13:57:14.181Z,98172
2018-01-23T13:59:40.955Z,98178
2018-01-23T14:02:07.652Z,98186
2018-01-23T14:04:34.352Z,98179
2018-01-23T14:07:01.814Z,98186
2018-01-23T14:09:29.241Z,98190
2018-01-23T14:11:55.966Z,98192
2018-01-23T14:14:22.711Z,98190
2018-01-23T14:16:49.428Z,98199
2018-01-23T14:19:16.114Z,98199
2018-01-23T14:21:42.858Z,98197
2018-01-23T14:24:09.603Z,98204
2018-01-23T14:26:36.303Z,98214
2018-01-23T14:29:03.071Z,98219
2018-01-23T14:31:29.743Z,98220
2018-01-23T14:33:56.434Z,98221
2018-01-23T14:36:23.141Z,98226
2018-01-23T14:38:49.922Z,98233
2018-01-23T14:41:16.737Z,98245
2018-01-23T14:43:50.351Z,98240
2018-01-23T14:46:17.808Z,98248
2018-01-23T14:48:45.259Z,98252
2018-01-23T14:51:11.973Z,98260
2018-01-23T14:53:38.688Z,98265
2018-01-23T14:56:05.393Z,98264
2018-01-23T14:58:32.121Z,98267
2018-01-23T15:00:58.841Z,98263
2018-01-23T15:03:25.559Z,98272
2018-01-23T15:05:52.320Z,98270
2018-01-23T15:08:19.049Z,98274
2018-01-23T15:10:45.799Z,98277
2018-01-23T15:13:12.502Z,98281
2018-01-23T15:15:39.186Z,98281
2018-01-23T15:18:05.861Z,98285
2018-01-23T15:20:32.561Z,98289
2018-01-23T15:22:59.275Z,98288
2018-01-23T15:25:25.995Z,98287
2018-01-23T15:27:52.761Z,98289
2018-01-23T15:30:19.506Z,98288
2018-01-23T15:32:46.190Z,98287
2018-01-23T15:35:12.890Z,98292
2018-01-23T15:37:39.610Z,98299
2018-01-23T15:40:06.362Z,98303
2018-01-23T15:42:33.112Z,98311
2018-01-23T15:44:59.801Z,98313
2018-01-23T15:47:26.546Z,98319
2018-01-23T15:49:53.334Z,98320
2018-01-23T15:52:20.029Z,98323
2018-01-23T15:54:46.721Z,98325
2018-01-23T15:57:13.405Z,98332
2018-01-23T15:59:40.867Z,98328
2018-01-23T16:02:08.312Z,98335
2018-01-23T16:04:35.063Z,98339
2018-01-23T16:07:02.512Z,98340
2018-01-23T16:09:29.193Z,98343
2018-01-23T16:11:55.979Z,98353
2018-01-23T16:14:22.686Z,98353
2018-01-23T16:16:49.398Z,98362
2018-01-23T16:19:16.894Z,98365
2018-01-23T16:21:43.594Z,98366
2018-01-23T16:24:10.311Z,98363
2018-01-23T16:26:37.005Z,98371
2018-01-23T16:29:03.731Z,98378
2018-01-23T16:31:30.498Z,98383
2018-01-23T16:33:57.217Z,98382
2018-01-23T16:36:24.678Z,98383
2018-01-23T16:38:52.132Z,98383
2018-01-23T16:41:18.848Z,98387
2018-01-23T16:43:45.538Z,98393
2018-01-23T16:46:12.305Z,98398
2018-01-23T16:48:39.050Z,98403
2018-01-23T16:51:05.785Z,98403
2018-01-23T16:53:32.574Z,98409
2018-01-23T16:55:59.278Z,98408
2018-01-23T16:58:26.040Z,98417
2018-01-23T17:00:52.792Z,98421
2018-01-23T17:03:20.562Z,98422
2018-01-23T17:05:47.311Z,98421
2018-01-23T17:08:14.028Z,98424
2018-01-23T17:10:40.752Z,98422
2018-01-23T17:13:08.198Z,98425
2018-01-23T17:15:35.680Z,98426
2018-01-23T17:18:02.396Z,98432
2018-01-23T17:20:29.103Z,98436
2018-01-23T17:22:56.576Z,98438
2018-01-23T17:25:23.321Z,98441
2018-01-23T17:27:50.153Z,98438
2018-01-23T17:30:16.850Z,98440
2018-01-23T17:32:44.405Z,98444
2018-01-23T17:35:11.151Z,98439
2018-01-23T17:37:38.627Z,98437
2018-01-23T17:40:06.206Z,98437
2018-01-23T17:42:32.911Z,98437
2018-01-23T17:44:59.617Z,98441
2018-01-23T17:47:26.408Z,98442
2018-01-23T17:49:53.139Z,98441
2018-01-23T17:52:19.835Z,98437
2018-01-23T17:54:46.556Z,98442
2018-01-23T17:57:13.334Z,98436
2018-01-23T17:59:40.066Z,98441
2018-01-23T18:02:10.593Z,98439
2018-01-23T18:04:37.318Z,98438
2018-01-23T18:07:04.738Z,98445
2018-01-23T18:09:31.566Z,98449
2018-01-23T18:11:58.254Z,98449
2018-01-23T18:14:24.926Z,98450
2018-01-23T18:16:51.650Z,98452
2018-01-23T18:19:19.122Z,98458
2018-01-23T18:21:45.881Z,98458
2018-01-23T18:24:12.665Z,98464
2018-01-23T18:26:39.407Z,98458
2018-01-23T18:29:06.137Z,98460
2018-01-23T18:31:32.936Z,98466
2018-01-23T18:34:00.470Z,98465
2018-01-23T18:36:27.161Z,98465
2018-01-23T18:38:53.921Z,98468
2018-01-23T18:41:20.673Z,98466
2018-01-23T18:43:47.446Z,98464
2018-01-23T18:46:14.214Z,98468
2018-01-23T18:48:42.838Z,98482
2018-01-23T18:51:09.553Z,98479
2018-01-23T18:53:36.311Z,98482
2018-01-23T18:56:03.059Z,98485
2018-01-23T18:58:29.809Z,98482
2018-01-23T19:00:56.570Z,98481
2018-01-23T19:03:23.318Z,98481
2018-01-23T19:05:50.015Z,98484
2018-01-23T19:08:17.506Z,98489
2018-01-23T19:10:44.284Z,98489
2018-01-23T19:13:11.051Z,98493
2018-01-23T19:15:37.795Z,98494
2018-01-23T19:18:04.549Z,98494
2018-01-23T19:20:32.030Z,98495
2018-01-23T19:22:58.794Z,98492
2018-01-23T19:25:25.581Z,98496
2018-01-23T19:27:52.321Z,98496
2018-01-23T19:30:19.131Z,98497
2018-01-23T19:32:45.863Z,98501
2018-01-23T19:35:12.623Z,98505
2018-01-23T19:37:39.376Z,98500
2018-01-23T19:40:06.119Z,98501
2018-01-23T19:42:32.822Z,98504
2018-01-23T19:45:00.509Z,98510
2018-01-23T19:47:27.546Z,98505
2018-01-23T19:49:54.314Z,98505
2018-01-23T19:52:21.097Z,98513
2018-01-23T19:54:51.285Z,98507
2018-01-23T19:57:18.074Z,98515
2018-01-23T19:59:44.913Z,98509
2018-01-23T20:02:11.908Z,98515
2018-01-23T20:04:38.717Z,98516
2018-01-23T20:07:05.587Z,98518
2018-01-23T20:09:32.536Z,98519
2018-01-23T20:12:00.341Z,98520
2018-01-23T20:14:27.139Z,98527
2018-01-23T20:16:54.920Z,98523
2018-01-23T20:19:21.722Z,98528
2018-01-23T20:21:49.491Z,98525
2018-01-23T20:24:17.035Z,98529
2018-01-23T20:26:43.739Z,98534
2018-01-23T20:29:11.226Z,98531
2018-01-23T20:31:38.093Z,98537
2018-01-23T20:34:04.826Z,98531
2018-01-23T20:36:31.601Z,98530
2018-01-23T20:38:58.303Z,98529
2018-01-23T20:41:25.027Z,98537
2018-01-23T20:43:52.573Z,98529
2018-01-23T20:46:19.266Z,98534
2018-01-23T20:48:46.058Z,98533
2018-01-23T20:51:12.827Z,98539
2018-01-23T20:53:39.574Z,98538
2018-01-23T20:56:07.024Z,98540
2018-01-23T20:58:34.548Z,98540
2018-01-23T21:01:01.260Z,98537
2018-01-23T21:03:28.006Z,98542
2018-01-23T21:05:54.771Z,98543
2018-01-23T21:08:21.454Z,98540
2018-01-23T21:10:48.214Z,98543
2018-01-23T21:13:15.670Z,98541
2018-01-23T21:15:43.141Z,98541
2018-01-23T21:18:10.623Z,98542
2018-01-23T21:20:37.491Z,98539
2018-01-23T21:23:04.287Z,98542
2018-01-23T21:25:31.717Z,98548
2018-01-23T21:27:58.409Z,98545
2018-01-23T21:30:25.200Z,98542
2018-01-23T21:32:51.983Z,98542
2018-01-23T21:35:19.444Z,98544
2018-01-23T21:37:46.924Z,98544
2018-01-23T21:40:13.605Z,98546
2018-01-23T21:42:41.114Z,98547
2018-01-23T21:45:08.683Z,98553
2018-01-23T21:47:36.212Z,98554
2018-01-23T21:50:03.095Z,98551
2018-01-23T21:52:29.978Z,98551
2018-01-23T21:54:56.677Z,98547
2018-01-23T21:57:24.122Z,98549
2018-01-23T21:59:50.899Z,98550
2018-01-23T22:02:17.621Z,98550
2018-01-23T22:04:45.245Z,98552
2018-01-23T22:07:12.194Z,98547
2018-01-23T22:09:38.856Z,98549
2018-01-23T22:12:05.585Z,98546
2018-01-23T22:14:32.308Z,98551
2018-01-23T22:16:59.010Z,98545
2018-01-23T22:19:26.475Z,98552
2018-01-23T22:21:53.913Z,98554
2018-01-23T22:24:20.579Z,98556
2018-01-23T22:26:47.996Z,98559
2018-01-23T22:29:14.678Z,98560
2018-01-23T22:31:42.200Z,98559
2018-01-23T22:34:08.980Z,98554
2018-01-23T22:36:36.404Z,98556
2018-01-23T22:39:03.253Z,98552
2018-01-23T22:41:29.925Z,98552
2018-01-23T22:43:56.590Z,98553
2018-01-23T22:46:24.032Z,98555
2018-01-23T22:48:51.545Z,98548
2018-01-23T22:51:18.262Z,98546
2018-01-23T22:53:45.029Z,98551
2018-01-23T22:56:11.724Z,98541
2018-01-23T22:58:39.173Z,98542
2018-01-23T23:01:05.901Z,98550
2018-01-23T23:03:33.029Z,98550
2018-01-23T23:05:59.686Z,98548
2018-01-23T23:08:26.413Z,98549
2018-01-23T23:10:53.154Z,98548
2018-01-23T23:13:19.841Z,98553
2018-01-23T23:15:46.590Z,98555
2018-01-23T23:18:13.314Z,98560
2018-01-23T23:20:40.008Z,98561
2018-01-23T23:23:06.751Z,98555
2018-01-23T23:25:33.453Z,98555
2018-01-23T23:28:00.252Z,98557
2018-01-23T23:30:26.946Z,98558
2018-01-23T23:32:53.645Z,98553
2018-01-23T23:35:20.376Z,98555
2018-01-23T23:37:47.030Z,98550
2018-01-23T23:40:13.782Z,98547
2018-01-23T23:42:40.493Z,98548
2018-01-23T23:45:07.900Z,98545
2018-01-23T23:47:34.619Z,98545
2018-01-23T23:50:01.298Z,98550
2018-01-23T23:52:27.983Z,98551
2018-01-23T23:54:55.428Z,98551
2018-01-23T23:57:22.098Z,98549
2018-01-23T23:59:48.786Z,98547
